Verdi, Nevada
Current Conditions -  °F | °C
As of 9:55 PM on Wednesday 22 Oct 2014 (Local Time) from KRNO Reporting Station
Scattered Clouds Scattered Clouds  
Wind Chill: 60°   Ceiling: Unl
Heat Index: 60°   Visibility: 10mi
Dew Point: 29°   Wind: 7mph
Humidity: 31%   Direction: 300°WNW
Pressure: 30.1"   Gusts: NA
Location:  39.52°N, 119.99°W
Report Text: KRNO 230455Z 30006KT 10SM SCT170 SCT250 16/M02 A3010 RMK AO2 SLP166 T01561017
Loading
Personal Weather Stations






























Interactive Weather Map
Tropical Storm Tracking
New forecast layout! Learn more

10-Day Weather Forecast

Advertisements
Track Severe Weather on mobile